Time;durP1;ratioP1;P1;durP2;ratioP2;P2;SDS_P1;SDS_P2;PMS_P1;PMS_P2;Temp;Humidity;BMP_temperature;BMP_pressure;BME280_temperature;BME280_humidity;BME280_pressure;Samples;Min_cycle;Max_cycle;Signal;HPM_P1;HPM_P2
2021/09/23 00:00:15;;;;;;;13.50;5.40;;;;;;;12.62;70.44;101341.19;4923015;28;98478;-64
2021/09/23 00:05:19;;;;;;;12.82;4.90;;;;;;;12.57;70.44;101324.91;4919588;28;98805;-64
2021/09/23 00:07:52;;;;;;;12.00;5.22;;;;;;;12.55;70.20;101321.66;4933893;28;99049;-64
2021/09/23 00:10:23;;;;;;;12.48;5.03;;;;;;;12.52;70.41;101337.31;4905224;28;98333;-62
2021/09/23 00:12:50;;;;;;;14.07;5.45;;;;;;;12.52;70.18;101328.41;4922417;28;98369;-65
2021/09/23 00:15:16;;;;;;;13.48;4.90;;;;;;;12.51;70.34;101326.78;4921678;28;117083;-62
2021/09/23 00:17:49;;;;;;;10.50;5.10;;;;;;;12.48;70.16;101330.81;4922435;28;99066;-64
2021/09/23 00:20:27;;;;;;;9.73;4.43;;;;;;;12.47;70.22;101333.78;4922195;28;114855;-61
2021/09/23 00:22:53;;;;;;;11.40;4.70;;;;;;;12.45;70.32;101331.31;4923118;28;97740;-64
2021/09/23 00:25:19;;;;;;;10.02;4.22;;;;;;;12.43;69.75;101327.25;4903583;28;127043;-64
2021/09/23 00:27:45;;;;;;;8.80;4.18;;;;;;;12.36;69.66;101327.47;4920635;28;98704;-62
2021/09/23 00:30:12;;;;;;;10.27;4.85;;;;;;;12.28;69.60;101328.75;4922879;28;98254;-62
2021/09/23 00:32:38;;;;;;;12.15;4.40;;;;;;;12.24;70.02;101332.22;4921263;28;111598;-62
2021/09/23 00:35:06;;;;;;;10.80;4.85;;;;;;;12.22;70.01;101342.47;4921573;28;127303;-62
2021/09/23 00:37:32;;;;;;;8.68;4.25;;;;;;;12.19;70.15;101343.00;4921809;28;99040;-64
2021/09/23 00:39:58;;;;;;;9.00;4.80;;;;;;;12.17;70.10;101351.34;4921861;28;105443;-64
2021/09/23 00:42:25;;;;;;;12.38;4.80;;;;;;;12.16;70.32;101360.53;4920944;28;118560;-62
2021/09/23 00:44:55;;;;;;;12.90;4.82;;;;;;;12.14;70.20;101356.44;4925710;28;98147;-64
2021/09/23 00:47:22;;;;;;;14.15;5.25;;;;;;;12.15;70.41;101350.81;4920360;28;99358;-62
2021/09/23 00:49:49;;;;;;;12.25;5.75;;;;;;;12.15;70.18;101345.41;4922523;28;98159;-62
2021/09/23 00:52:15;;;;;;;12.13;5.78;;;;;;;12.15;70.22;101340.00;4921378;28;108711;-62
2021/09/23 00:54:41;;;;;;;12.20;5.57;;;;;;;12.17;70.44;101339.72;4921730;28;116571;-62
2021/09/23 00:57:07;;;;;;;10.40;5.82;;;;;;;12.16;70.75;101336.22;4918417;28;126913;-62
2021/09/23 00:59:34;;;;;;;11.50;5.85;;;;;;;12.15;70.51;101340.00;4921266;28;120129;-62
2021/09/23 01:02:00;;;;;;;12.93;5.82;;;;;;;12.14;70.76;101340.25;4921488;28;108828;-62
2021/09/23 01:04:26;;;;;;;13.75;5.93;;;;;;;12.12;70.36;101334.28;4921324;28;127553;-62
2021/09/23 01:06:53;;;;;;;14.27;5.75;;;;;;;12.11;70.70;101336.19;4920685;28;128089;-61
2021/09/23 01:09:19;;;;;;;10.25;5.93;;;;;;;12.10;70.50;101334.53;4919672;28;100440;-64
2021/09/23 01:11:45;;;;;;;14.68;6.35;;;;;;;12.09;70.38;101329.38;4922450;28;97814;-62
2021/09/23 01:14:11;;;;;;;11.63;5.70;;;;;;;12.06;70.44;101327.19;4920865;28;127947;-64
2021/09/23 01:16:38;;;;;;;10.38;5.63;;;;;;;12.03;70.55;101315.03;4922475;28;100252;-65
2021/09/23 01:19:04;;;;;;;12.77;6.50;;;;;;;12.00;70.61;101315.53;4921042;28;126283;-62
2021/09/23 01:21:31;;;;;;;11.32;6.10;;;;;;;11.97;70.66;101311.44;4921133;28;118684;-62
2021/09/23 01:23:57;;;;;;;12.63;6.28;;;;;;;11.95;70.58;101316.31;4920642;28;128492;-62
2021/09/23 01:26:26;;;;;;;12.38;6.43;;;;;;;11.95;70.55;101315.50;4920895;28;127993;-64
2021/09/23 01:28:56;;;;;;;10.38;5.97;;;;;;;11.93;70.58;101318.44;4920346;28;98428;-64
2021/09/23 01:31:23;;;;;;;12.73;5.80;;;;;;;11.94;70.46;101313.84;4921101;28;106634;-65
2021/09/23 01:33:49;;;;;;;11.20;6.00;;;;;;;11.94;70.90;101311.94;4921665;28;98264;-62
2021/09/23 01:36:15;;;;;;;13.48;6.15;;;;;;;11.94;70.87;101313.84;4921360;28;98483;-64
2021/09/23 01:38:42;;;;;;;12.68;6.70;;;;;;;11.93;70.84;101304.13;4920911;28;127735;-62
2021/09/23 01:41:09;;;;;;;13.10;7.22;;;;;;;11.95;70.78;101302.00;4920647;28;99512;-62
2021/09/23 01:43:35;;;;;;;10.90;6.35;;;;;;;11.92;70.69;101287.09;4901127;28;120470;-65
2021/09/23 01:46:01;;;;;;;12.60;6.82;;;;;;;11.93;70.91;101287.91;4920675;28;120330;-62
2021/09/23 01:48:27;;;;;;;12.35;6.93;;;;;;;11.92;70.80;101284.41;4919876;28;127672;-64
2021/09/23 01:50:53;;;;;;;13.75;6.57;;;;;;;11.92;71.05;101281.69;4886624;28;117958;-62
2021/09/23 01:53:19;;;;;;;12.65;7.57;;;;;;;11.93;70.73;101269.81;4900401;28;127977;-62
2021/09/23 01:55:45;;;;;;;14.52;7.47;;;;;;;11.93;70.81;101269.81;4886030;28;127360;-62
2021/09/23 01:58:11;;;;;;;15.23;6.88;;;;;;;11.94;70.24;101266.03;4921028;28;97749;-62
2021/09/23 02:00:37;;;;;;;10.27;7.90;;;;;;;11.93;70.52;101259.00;4905769;28;100356;-62
2021/09/23 02:03:03;;;;;;;14.20;8.00;;;;;;;11.92;71.34;101254.66;4918425;28;109599;-62
2021/09/23 02:05:31;;;;;;;12.00;7.60;;;;;;;11.91;71.41;101249.53;4920600;28;111525;-62
2021/09/23 02:07:57;;;;;;;15.43;7.93;;;;;;;11.90;71.33;101262.19;4903208;28;98243;-64
2021/09/23 02:10:23;;;;;;;14.35;8.20;;;;;;;11.92;71.55;101259.25;4920813;28;118451;-62
2021/09/23 02:12:49;;;;;;;13.68;7.95;;;;;;;11.93;71.32;101248.19;4918253;28;127039;-62
2021/09/23 02:15:15;;;;;;;11.45;7.90;;;;;;;11.94;71.28;101240.91;4920268;28;125892;-62
2021/09/23 02:17:41;;;;;;;13.98;7.85;;;;;;;11.96;71.51;101246.88;4920858;28;125878;-62
2021/09/23 02:20:08;;;;;;;12.88;7.80;;;;;;;11.96;71.36;101250.38;4922064;28;97964;-61
2021/09/23 02:22:34;;;;;;;13.52;8.18;;;;;;;11.97;71.50;101245.78;4919835;28;99186;-62
2021/09/23 02:25:00;;;;;;;11.85;8.07;;;;;;;12.00;71.90;101239.88;4921832;28;97806;-62
2021/09/23 02:27:26;;;;;;;13.05;7.90;;;;;;;12.01;71.07;101228.81;4920574;28;97939;-62
2021/09/23 02:29:52;;;;;;;11.35;7.50;;;;;;;12.01;71.20;101228.00;4920543;28;118313;-62
2021/09/23 02:32:18;;;;;;;13.30;7.97;;;;;;;12.01;71.02;101226.09;4919778;28;128782;-64
2021/09/23 02:34:44;;;;;;;15.65;8.70;;;;;;;11.98;71.68;101226.59;4920613;28;125888;-61
2021/09/23 02:37:10;;;;;;;14.00;8.05;;;;;;;11.96;71.77;101215.25;4919881;28;124182;-64
2021/09/23 02:39:36;;;;;;;14.27;9.63;;;;;;;11.93;71.27;101209.56;4923519;28;97843;-65
2021/09/23 02:42:03;;;;;;;14.93;8.82;;;;;;;11.88;71.64;101207.63;4923527;28;98902;-64
2021/09/23 02:44:29;;;;;;;16.15;8.95;;;;;;;11.87;71.88;101206.00;4924566;28;98121;-62
2021/09/23 02:46:55;;;;;;;13.38;9.27;;;;;;;11.84;71.81;101195.72;4923234;28;126538;-64
2021/09/23 02:49:21;;;;;;;14.93;9.82;;;;;;;11.84;71.26;101194.91;4923715;28;117518;-61
2021/09/23 02:51:47;;;;;;;11.82;8.75;;;;;;;11.82;71.50;101197.00;4924272;28;98399;-62
2021/09/23 02:54:13;;;;;;;14.05;8.98;;;;;;;11.80;71.91;101183.75;4922765;28;128140;-64
2021/09/23 02:56:39;;;;;;;13.45;9.57;;;;;;;11.78;72.35;101183.19;4923352;28;98683;-62
2021/09/23 02:59:05;;;;;;;13.70;9.60;;;;;;;11.78;72.20;101186.72;4924267;28;117900;-62
2021/09/23 03:01:31;;;;;;;14.00;9.18;;;;;;;11.75;71.84;101181.84;4922689;28;128060;-65
2021/09/23 03:03:57;;;;;;;14.73;9.02;;;;;;;11.76;72.29;101188.06;4922615;28;97802;-62
2021/09/23 03:06:24;;;;;;;12.68;9.52;;;;;;;11.74;72.19;101192.88;4920726;28;128330;-64
2021/09/23 03:08:50;;;;;;;11.40;8.73;;;;;;;11.76;72.38;101196.97;4922403;28;97749;-62
2021/09/23 03:11:16;;;;;;;13.35;9.30;;;;;;;11.77;71.91;101197.78;4922483;28;128028;-64
2021/09/23 03:13:43;;;;;;;12.82;8.95;;;;;;;11.77;71.69;101192.38;4921185;28;124516;-62
2021/09/23 03:16:09;;;;;;;11.85;9.00;;;;;;;11.76;71.59;101191.56;4905213;28;97987;-62
2021/09/23 03:18:35;;;;;;;11.60;8.40;;;;;;;11.74;72.06;101182.91;4923052;28;112491;-61
2021/09/23 03:21:01;;;;;;;12.45;9.02;;;;;;;11.74;71.78;101182.91;4922746;28;128027;-64
2021/09/23 03:23:27;;;;;;;14.07;9.10;;;;;;;11.72;72.10;101179.66;4923361;28;98260;-62
2021/09/23 03:25:53;;;;;;;12.90;9.00;;;;;;;11.68;72.11;101178.53;4922754;28;125380;-62
2021/09/23 03:28:19;;;;;;;12.40;8.82;;;;;;;11.63;71.65;101178.50;4923221;28;98158;-64
2021/09/23 03:30:46;;;;;;;11.32;8.68;;;;;;;11.59;71.87;101163.03;4923070;28;98576;-62
2021/09/23 03:33:12;;;;;;;12.18;9.25;;;;;;;11.53;71.51;101165.72;4921284;28;98365;-64
2021/09/23 03:35:38;;;;;;;12.15;9.77;;;;;;;11.51;72.00;101161.63;4922917;28;121441;-62
2021/09/23 03:38:04;;;;;;;14.50;10.15;;;;;;;11.46;71.78;101159.69;4923256;28;97753;-64
2021/09/23 03:40:30;;;;;;;14.82;9.50;;;;;;;11.42;72.07;101158.59;4923003;28;126765;-62
2021/09/23 03:42:57;;;;;;;13.30;9.88;;;;;;;11.38;72.20;101146.69;4921636;28;126906;-62
2021/09/23 03:45:23;;;;;;;13.55;9.95;;;;;;;11.36;72.34;101150.69;4923689;28;98303;-64
2021/09/23 03:47:49;;;;;;;13.98;9.80;;;;;;;11.34;72.31;101148.25;4921646;28;98257;-64
2021/09/23 03:50:16;;;;;;;13.43;9.25;;;;;;;11.31;72.54;101144.16;4923275;28;98968;-64
2021/09/23 03:52:42;;;;;;;14.77;9.98;;;;;;;11.29;71.97;101140.13;4905299;28;98824;-64
2021/09/23 03:55:09;;;;;;;14.85;10.40;;;;;;;11.24;72.53;101140.09;4921068;28;98339;-61
2021/09/23 03:57:35;;;;;;;15.07;9.43;;;;;;;11.19;72.21;101138.13;4922071;28;98598;-62
2021/09/23 04:00:01;;;;;;;15.43;10.60;;;;;;;11.18;72.37;101150.00;4922798;28;116073;-61
2021/09/23 04:02:27;;;;;;;14.85;10.20;;;;;;;11.14;72.49;101138.09;4921702;28;128022;-62
2021/09/23 04:04:53;;;;;;;14.90;9.68;;;;;;;11.12;72.08;101139.41;4922334;28;127015;-64
2021/09/23 04:07:19;;;;;;;14.68;10.30;;;;;;;11.10;72.22;101138.84;4921703;28;117735;-62
2021/09/23 04:09:45;;;;;;;15.48;10.32;;;;;;;11.09;72.41;101134.53;4921779;28;126811;-62
2021/09/23 04:12:11;;;;;;;16.27;10.52;;;;;;;11.05;72.37;101123.44;4921249;28;128150;-62
2021/09/23 04:14:37;;;;;;;16.05;10.73;;;;;;;11.00;72.03;101123.34;4921033;28;100697;-64
2021/09/23 04:17:03;;;;;;;14.20;10.95;;;;;;;10.99;72.52;101127.13;4903546;28;116850;-64
2021/09/23 04:19:29;;;;;;;14.63;10.77;;;;;;;10.96;72.36;101128.44;4920557;28;99200;-64
2021/09/23 04:21:55;;;;;;;14.07;10.35;;;;;;;10.94;72.36;101117.09;4921031;28;127860;-64
2021/09/23 04:24:21;;;;;;;16.40;10.93;;;;;;;10.92;72.41;101113.84;4922343;28;126680;-61
2021/09/23 04:26:48;;;;;;;13.32;9.75;;;;;;;10.91;72.22;101119.50;4922957;28;98105;-63
2021/09/23 04:29:14;;;;;;;17.63;11.27;;;;;;;10.89;72.17;101105.47;4922653;28;99071;-61
2021/09/23 04:31:40;;;;;;;14.10;10.50;;;;;;;10.86;72.49;101114.06;4921459;28;127627;-64
2021/09/23 04:34:06;;;;;;;15.60;11.00;;;;;;;10.84;72.71;101110.78;4922806;28;101579;-61
2021/09/23 04:36:32;;;;;;;13.07;9.77;;;;;;;10.82;72.29;101102.94;4921223;28;118123;-64
2021/09/23 04:38:58;;;;;;;15.80;11.68;;;;;;;10.81;72.49;101099.44;4921375;28;128599;-66
2021/09/23 04:41:24;;;;;;;13.90;10.15;;;;;;;10.81;72.72;101096.75;4922641;28;99473;-61
2021/09/23 04:43:50;;;;;;;12.85;9.48;;;;;;;10.79;72.32;101098.88;4921872;28;98471;-64
2021/09/23 04:46:24;;;;;;;13.55;9.90;;;;;;;10.79;72.23;101098.88;4922376;28;97991;-64
2021/09/23 04:48:53;;;;;;;11.60;9.50;;;;;;;10.79;71.94;101093.47;4922554;28;98651;-65
2021/09/23 04:51:21;;;;;;;12.25;9.48;;;;;;;10.79;72.41;101098.06;4921780;28;99362;-61
2021/09/23 04:53:47;;;;;;;12.63;9.02;;;;;;;10.77;72.25;101095.63;4921691;28;97747;-61
2021/09/23 04:56:13;;;;;;;14.98;10.23;;;;;;;10.77;72.21;101097.50;4920668;28;116478;-64
2021/09/23 04:58:39;;;;;;;13.38;9.45;;;;;;;10.77;72.34;101092.94;4921573;28;112908;-61
2021/09/23 05:01:05;;;;;;;10.98;9.13;;;;;;;10.78;72.30;101099.13;4921405;28;126843;-62
2021/09/23 05:03:31;;;;;;;11.07;8.50;;;;;;;10.78;72.12;101091.03;4922050;28;97893;-61
2021/09/23 05:05:57;;;;;;;11.23;8.85;;;;;;;10.78;72.11;101083.78;4920058;28;116733;-65
2021/09/23 05:08:23;;;;;;;11.35;8.73;;;;;;;10.78;72.02;101086.47;4921654;28;98870;-61
2021/09/23 05:10:50;;;;;;;12.23;9.13;;;;;;;10.79;71.51;101079.19;4922242;28;97849;-61
2021/09/23 05:13:16;;;;;;;11.77;9.00;;;;;;;10.79;70.99;101077.28;4921374;28;112116;-64
2021/09/23 05:15:43;;;;;;;12.23;8.77;;;;;;;10.77;71.55;101078.63;4920045;28;100636;-64
2021/09/23 05:18:10;;;;;;;11.98;8.73;;;;;;;10.73;71.06;101086.41;4921966;28;98267;-61
2021/09/23 05:20:36;;;;;;;13.55;9.23;;;;;;;10.71;71.64;101093.94;4919552;28;118385;-64
2021/09/23 05:23:02;;;;;;;12.18;9.00;;;;;;;10.73;71.44;101094.50;4920856;28;108617;-64
2021/09/23 05:25:28;;;;;;;12.80;9.38;;;;;;;10.75;71.56;101092.34;4903467;28;116397;-62
2021/09/23 05:27:55;;;;;;;12.73;9.07;;;;;;;10.77;71.17;101090.22;4903034;28;98476;-64
2021/09/23 05:30:21;;;;;;;13.10;9.50;;;;;;;10.80;71.06;101083.50;4919960;28;120646;-65
2021/09/23 05:32:47;;;;;;;12.30;9.45;;;;;;;10.82;71.36;101084.06;4921099;28;97838;-64
2021/09/23 05:35:13;;;;;;;12.23;9.73;;;;;;;10.82;71.45;101079.50;4921165;28;103459;-61
2021/09/23 05:37:39;;;;;;;12.63;9.68;;;;;;;10.85;71.08;101077.38;4920021;28;128602;-64
2021/09/23 05:40:07;;;;;;;12.48;8.80;;;;;;;10.85;71.34;101077.38;4919820;28;101923;-61
2021/09/23 05:42:33;;;;;;;12.27;9.70;;;;;;;10.90;71.36;101069.31;4920076;28;114987;-62
2021/09/23 05:44:59;;;;;;;14.55;10.15;;;;;;;10.94;71.61;101057.75;4921888;28;97980;-65
2021/09/23 05:47:25;;;;;;;12.20;9.80;;;;;;;10.97;71.39;101061.84;4920548;28;128295;-64
2021/09/23 05:49:51;;;;;;;14.32;10.15;;;;;;;11.03;71.70;101063.50;4920733;28;127915;-61
2021/09/23 05:52:20;;;;;;;15.15;11.40;;;;;;;11.12;72.03;101069.25;4920403;28;127567;-61
2021/09/23 05:54:46;;;;;;;14.80;11.25;;;;;;;11.18;72.09;101062.84;4921413;28;97890;-64
2021/09/23 05:57:17;;;;;;;14.93;10.85;;;;;;;11.25;71.92;101055.34;4917895;28;114962;-64
2021/09/23 05:59:43;;;;;;;16.65;11.32;;;;;;;11.33;71.67;101062.16;4921242;28;98628;-62
2021/09/23 06:02:09;;;;;;;14.43;10.73;;;;;;;11.39;71.28;101056.53;4918896;28;127926;-64
2021/09/23 06:04:35;;;;;;;12.25;9.73;;;;;;;11.49;71.22;101053.91;4921068;28;117989;-65
2021/09/23 06:07:01;;;;;;;14.38;10.30;;;;;;;11.59;71.54;101046.94;4917750;28;128603;-64
2021/09/23 06:09:27;;;;;;;12.07;10.25;;;;;;;11.69;71.68;101060.53;4885655;28;128519;-64
2021/09/23 06:11:54;;;;;;;10.48;8.95;;;;;;;11.80;71.21;101062.22;4919609;28;128048;-64
2021/09/23 06:14:20;;;;;;;12.90;9.80;;;;;;;11.88;71.35;101059.06;4920661;28;98267;-64
2021/09/23 06:16:46;;;;;;;12.68;9.65;;;;;;;11.99;70.86;101062.63;4919796;28;127972;-62
2021/09/23 06:19:12;;;;;;;13.02;10.15;;;;;;;12.10;71.34;101053.47;4917989;28;127565;-62
2021/09/23 06:21:39;;;;;;;13.90;10.20;;;;;;;12.21;71.23;101051.63;4919460;28;126761;-64
2021/09/23 06:24:05;;;;;;;12.27;9.43;;;;;;;12.59;70.02;101061.25;4919833;28;97840;-62
2021/09/23 06:26:31;;;;;;;12.35;9.20;;;;;;;13.06;68.43;101054.84;4919689;28;127387;-64
2021/09/23 06:28:58;;;;;;;10.95;8.88;;;;;;;13.00;69.42;101055.91;4919362;28;128464;-62
2021/09/23 06:31:24;;;;;;;11.18;9.38;;;;;;;13.06;69.13;101051.34;4920758;28;97911;-64
2021/09/23 06:33:50;;;;;;;9.88;8.77;;;;;;;13.10;69.36;101044.28;4918605;28;120141;-62
2021/09/23 06:36:16;;;;;;;11.52;8.77;;;;;;;13.15;69.29;101047.00;4918333;28;98213;-65
2021/09/23 06:38:42;;;;;;;13.75;9.10;;;;;;;13.23;69.26;101041.88;4918989;28;98953;-64
2021/09/23 06:41:12;;;;;;;9.35;7.93;;;;;;;13.38;69.19;101032.94;4919660;28;128064;-64
2021/09/23 06:43:39;;;;;;;9.48;7.72;;;;;;;13.52;68.87;101027.78;4918686;28;97751;-65
2021/09/23 06:46:05;;;;;;;9.43;7.72;;;;;;;13.59;68.72;101032.91;4917663;28;115078;-65
2021/09/23 06:48:31;;;;;;;8.02;7.22;;;;;;;13.72;68.20;101033.16;4918577;28;98947;-65
2021/09/23 06:50:57;;;;;;;8.98;7.25;;;;;;;13.85;68.50;101036.38;4917560;28;125752;-62
2021/09/23 06:53:23;;;;;;;9.80;6.95;;;;;;;14.00;68.31;101029.03;4902555;28;98148;-65
2021/09/23 06:55:49;;;;;;;12.07;7.13;;;;;;;14.14;68.07;101021.09;4920098;28;127527;-62
2021/09/23 06:58:15;;;;;;;8.80;7.00;;;;;;;14.29;67.18;101017.50;4918554;28;128456;-62
2021/09/23 07:00:41;;;;;;;9.30;6.95;;;;;;;14.48;67.15;101017.69;4919365;28;98325;-64
2021/09/23 07:03:07;;;;;;;7.75;6.32;;;;;;;14.68;66.89;101009.44;4886383;28;98528;-62
2021/09/23 07:05:33;;;;;;;9.50;7.10;;;;;;;14.93;66.37;101003.06;4918070;28;113521;-62
2021/09/23 07:08:00;;;;;;;9.20;7.03;;;;;;;15.07;66.22;101007.81;4917653;28;98596;-62
2021/09/23 07:10:26;;;;;;;9.52;6.63;;;;;;;15.20;66.33;101013.38;4921253;28;98076;-64
2021/09/23 07:12:52;;;;;;;9.90;6.90;;;;;;;15.33;65.02;101005.69;4919697;28;119013;-62
2021/09/23 07:15:18;;;;;;;7.65;6.63;;;;;;;15.42;65.27;101012.13;4919885;28;127053;-64
2021/09/23 07:17:44;;;;;;;9.13;6.45;;;;;;;15.55;65.05;101010.63;4918682;28;98381;-62
2021/09/23 07:20:11;;;;;;;10.95;7.47;;;;;;;15.71;64.53;100999.34;4919964;28;121191;-62
2021/09/23 07:22:37;;;;;;;9.52;6.32;;;;;;;15.87;64.41;100991.81;4919224;28;106152;-62
2021/09/23 07:25:04;;;;;;;7.90;6.07;;;;;;;16.01;64.08;100986.50;4919518;28;128236;-65
2021/09/23 07:27:30;;;;;;;7.03;6.13;;;;;;;16.14;63.43;100993.13;4922249;28;109566;-62
2021/09/23 07:29:56;;;;;;;8.23;6.25;;;;;;;16.25;63.58;100996.53;4922811;28;128082;-62
2021/09/23 07:32:22;;;;;;;8.98;6.30;;;;;;;16.33;62.67;100988.53;4922473;28;117945;-62
2021/09/23 07:34:48;;;;;;;8.70;6.43;;;;;;;16.40;62.82;100994.41;4927042;28;98708;-62
2021/09/23 07:37:14;;;;;;;7.50;5.97;;;;;;;16.43;62.74;100988.38;4922611;28;128215;-65
2021/09/23 07:39:41;;;;;;;9.27;5.80;;;;;;;16.50;62.60;100985.28;4922659;28;125385;-65
2021/09/23 07:42:07;;;;;;;9.02;6.20;;;;;;;16.58;62.27;100984.63;4922233;28;100421;-62
2021/09/23 07:44:36;;;;;;;8.00;5.90;;;;;;;16.68;61.61;100970.88;4920189;28;128334;-62
2021/09/23 07:47:02;;;;;;;6.85;5.40;;;;;;;16.80;61.81;100984.06;4922889;28;98789;-65
2021/09/23 07:49:28;;;;;;;6.72;5.68;;;;;;;16.91;61.35;100982.78;4923079;28;107304;-62
2021/09/23 07:51:54;;;;;;;6.95;6.00;;;;;;;16.93;61.23;100980.56;4922525;28;117861;-62
2021/09/23 07:54:20;;;;;;;8.23;6.40;;;;;;;16.97;60.96;100972.63;4923380;28;97791;-65
2021/09/23 07:56:46;;;;;;;6.80;6.10;;;;;;;17.01;60.90;100964.66;4923295;28;98005;-65
2021/09/23 07:59:12;;;;;;;6.50;5.80;;;;;;;17.15;60.84;100960.06;4921930;28;128373;-65
2021/09/23 08:01:39;;;;;;;9.20;5.88;;;;;;;17.49;59.67;100956.16;4921814;28;117920;-62
2021/09/23 08:04:05;;;;;;;6.60;5.90;;;;;;;17.70;58.96;100949.22;4921543;28;127958;-63
2021/09/23 08:06:31;;;;;;;6.43;5.38;;;;;;;18.25;58.19;100942.91;4922944;28;98393;-65
2021/09/23 08:08:57;;;;;;;6.53;5.40;;;;;;;19.35;56.21;100953.34;4922611;28;124868;-63
2021/09/23 08:11:24;;;;;;;6.57;5.50;;;;;;;19.52;55.54;100939.72;4921852;28;117325;-65
2021/09/23 08:13:50;;;;;;;6.30;5.35;;;;;;;19.83;55.00;100945.16;4922138;28;114550;-65
2021/09/23 08:16:16;;;;;;;6.93;5.07;;;;;;;20.65;52.91;100939.97;4921281;28;127972;-65
2021/09/23 08:18:42;;;;;;;5.90;5.30;;;;;;;22.02;49.96;100939.00;4903481;28;126849;-63
2021/09/23 08:21:08;;;;;;;6.72;4.90;;;;;;;22.91;48.55;100941.53;4922207;28;97904;-63
2021/09/23 08:23:34;;;;;;;5.40;4.90;;;;;;;24.69;44.70;100929.88;4922287;28;112444;-63
2021/09/23 08:26:01;;;;;;;5.32;4.82;;;;;;;27.87;39.11;100945.00;4922761;28;98857;-65
2021/09/23 08:28:27;;;;;;;6.68;5.18;;;;;;;30.21;35.19;100941.38;4921763;28;109482;-63
2021/09/23 08:30:55;;;;;;;5.82;4.75;;;;;;;31.63;33.26;100921.38;4917954;28;97910;-63
2021/09/23 08:33:22;;;;;;;6.05;4.25;;;;;;;28.93;37.02;100922.53;4905529;28;97964;-65
2021/09/23 08:35:48;;;;;;;4.95;4.35;;;;;;;29.90;35.21;100896.34;4920314;28;111052;-62
2021/09/23 08:38:18;;;;;;;5.10;4.13;;;;;;;30.16;35.01;100902.84;4918592;28;127260;-65
2021/09/23 08:40:45;;;;;;;4.72;3.90;;;;;;;29.10;37.24;100882.28;4922571;28;98046;-65
2021/09/23 08:43:11;;;;;;;4.43;3.83;;;;;;;28.71;37.49;100871.59;4919285;28;98253;-63
2021/09/23 08:45:37;;;;;;;4.53;4.10;;;;;;;28.27;37.54;100863.19;4921118;28;126768;-63
2021/09/23 08:48:03;;;;;;;4.63;3.92;;;;;;;27.91;38.05;100878.56;4920399;28;119275;-64
2021/09/23 08:50:30;;;;;;;5.38;3.95;;;;;;;27.66;38.38;100877.00;4922661;28;97826;-62
2021/09/23 08:52:56;;;;;;;4.88;3.47;;;;;;;27.46;38.87;100866.41;4921303;28;120922;-62
2021/09/23 08:55:32;;;;;;;4.88;3.60;;;;;;;27.41;39.59;100848.16;4903051;28;128537;-62
2021/09/23 08:58:03;;;;;;;4.72;3.38;;;;;;;27.10;39.55;100857.53;4920242;28;102648;-64
2021/09/23 09:00:30;;;;;;;4.28;3.88;;;;;;;27.00;39.27;100853.44;4904629;28;98291;-63
2021/09/23 09:03:06;;;;;;;3.38;2.95;;;;;;;26.84;40.61;100842.50;4921445;28;117131;-65
2021/09/23 09:05:34;;;;;;;4.68;3.47;;;;;;;26.62;39.77;100857.91;4922223;28;98069;-65
2021/09/23 09:08:10;;;;;;;5.63;3.38;;;;;;;26.56;40.44;100842.78;4921656;28;97908;-62
2021/09/23 09:10:37;;;;;;;4.30;3.33;;;;;;;26.47;40.04;100844.97;4920363;28;98028;-62
2021/09/23 09:13:05;;;;;;;4.07;3.13;;;;;;;26.51;40.36;100845.03;4921507;28;97842;-63
2021/09/23 09:15:37;;;;;;;4.47;3.25;;;;;;;26.57;40.03;100840.81;4921581;28;97944;-65
2021/09/23 09:18:22;;;;;;;3.97;3.08;;;;;;;26.71;40.72;100831.97;4919320;28;98520;-63
2021/09/23 09:21:08;;;;;;;4.88;3.28;;;;;;;26.75;40.52;100830.88;4921359;28;110842;-63
2021/09/23 09:23:52;;;;;;;23.40;9.70;;;;;;;26.76;40.35;100823.38;4922172;28;98394;-63
2021/09/23 09:26:33;;;;;;;4.72;3.80;;;;;;;26.81;40.12;100807.28;4921769;28;98765;-65
2021/09/23 09:29:02;;;;;;;3.70;3.28;;;;;;;26.91;38.96;100795.59;4920611;28;98447;-62
2021/09/23 09:31:28;;;;;;;5.53;3.63;;;;;;;27.05;38.67;100795.03;4921863;28;99027;-65
2021/09/23 09:33:59;;;;;;;4.18;3.00;;;;;;;27.24;38.86;100785.06;4921763;28;98647;-65
2021/09/23 09:36:38;;;;;;;3.78;2.90;;;;;;;27.32;38.40;100782.03;4921425;28;98913;-65
2021/09/23 09:39:10;;;;;;;4.43;3.33;;;;;;;27.42;38.28;100777.81;4921082;28;115902;-63
2021/09/23 09:41:37;;;;;;;;;;;;;;;27.71;39.40;100770.69;4922461;28;97873;-63
2021/09/23 09:44:08;;;;;;;4.43;2.85;;;;;;;27.54;38.82;100765.72;4920657;28;99155;-66
2021/09/23 09:46:41;;;;;;;4.07;3.33;;;;;;;27.73;38.13;100767.53;4903072;28;98429;-66
2021/09/23 09:49:07;;;;;;;3.45;2.70;;;;;;;27.92;37.35;100756.31;4920630;28;98052;-63
2021/09/23 09:51:42;;;;;;;3.33;2.72;;;;;;;28.18;37.93;100738.81;4921409;28;109152;-63
2021/09/23 09:54:13;;;;;;;4.15;2.42;;;;;;;28.34;36.89;100736.59;4921126;28;98900;-63
2021/09/23 09:56:41;;;;;;;3.73;2.23;;;;;;;28.12;36.83;100720.94;4920664;28;99023;-63
2021/09/23 09:59:18;;;;;;;3.80;2.08;;;;;;;27.65;37.74;100727.91;4920981;28;98243;-63
2021/09/23 10:01:52;;;;;;;3.00;2.70;;;;;;;27.55;37.12;100721.06;4921276;28;97754;-62
2021/09/23 10:04:21;;;;;;;3.75;3.00;;;;;;;27.53;37.18;100715.09;4920807;28;116511;-62
2021/09/23 10:06:47;;;;;;;4.30;2.33;;;;;;;27.05;37.36;100714.03;4920598;28;99020;-65
2021/09/23 10:09:15;;;;;;;4.38;2.33;;;;;;;27.69;36.51;100698.28;4921174;28;98008;-65
2021/09/23 10:11:43;;;;;;;2.33;2.10;;;;;;;28.29;35.08;100689.00;4919013;28;98022;-63
2021/09/23 10:14:11;;;;;;;3.00;1.67;;;;;;;28.36;35.18;100692.69;4919685;28;98202;-63
2021/09/23 10:16:37;;;;;;;3.80;1.92;;;;;;;28.80;34.22;100691.03;4902807;28;99899;-66
2021/09/23 10:19:03;;;;;;;2.47;1.90;;;;;;;29.38;33.81;100698.50;4920098;28;118010;-63
2021/09/23 10:21:30;;;;;;;2.97;1.90;;;;;;;29.78;33.06;100691.16;4919751;28;97940;-65
2021/09/23 10:23:56;;;;;;;3.08;1.70;;;;;;;29.04;34.30;100684.88;4920555;28;111577;-63
2021/09/23 10:26:29;;;;;;;3.05;1.67;;;;;;;28.29;35.76;100675.94;4918587;28;100924;-66
2021/09/23 10:28:57;;;;;;;2.10;1.40;;;;;;;27.70;36.13;100663.88;4902896;28;98234;-66
2021/09/23 10:31:30;;;;;;;2.28;1.20;;;;;;;27.33;36.69;100672.16;4903377;28;98015;-66
2021/09/23 10:33:58;;;;;;;2.03;1.33;;;;;;;27.10;36.84;100666.69;4921216;28;98776;-66
2021/09/23 10:36:24;;;;;;;1.90;1.52;;;;;;;27.52;35.81;100660.13;4918480;28;98305;-66
2021/09/23 10:38:50;;;;;;;2.58;1.77;;;;;;;28.19;34.13;100657.28;4918231;28;119545;-66
2021/09/23 10:41:16;;;;;;;2.10;1.50;;;;;;;28.42;33.73;100651.56;4901228;28;117053;-65
2021/09/23 10:43:42;;;;;;;2.38;1.40;;;;;;;28.88;33.53;100656.59;4885049;28;128052;-65
2021/09/23 10:46:11;;;;;;;3.13;1.60;;;;;;;29.29;33.08;100653.69;4901541;28;126728;-62
2021/09/23 10:48:38;;;;;;;3.17;1.25;;;;;;;29.09;33.18;100653.19;4903033;28;98149;-65
2021/09/23 10:51:05;;;;;;;2.72;1.60;;;;;;;28.86;33.34;100643.13;4918926;28;97905;-63
2021/09/23 10:53:35;;;;;;;3.13;1.45;;;;;;;28.85;33.78;100632.44;4920877;28;98018;-62
2021/09/23 10:56:08;;;;;;;2.63;1.48;;;;;;;28.69;34.00;100629.97;4919507;28;110604;-63
2021/09/23 10:58:34;;;;;;;2.03;1.40;;;;;;;28.31;32.99;100628.47;4919339;28;127589;-66
2021/09/23 11:01:03;;;;;;;2.58;1.25;;;;;;;28.18;33.70;100616.91;4920597;28;118371;-66
2021/09/23 11:03:39;;;;;;;2.55;1.20;;;;;;;28.38;33.94;100620.25;4923322;28;99049;-63
2021/09/23 11:06:12;;;;;;;2.15;1.13;;;;;;;29.02;32.83;100611.56;4921064;28;98795;-63
2021/09/23 11:08:46;;;;;;;2.92;1.20;;;;;;;29.13;31.74;100606.06;4923966;28;98347;-66
2021/09/23 11:11:13;;;;;;;2.28;1.15;;;;;;;29.56;31.17;100593.09;4922155;28;98307;-66
2021/09/23 11:13:39;;;;;;;2.58;1.10;;;;;;;29.76;30.82;100588.00;4921115;28;117664;-63
2021/09/23 11:16:10;;;;;;;2.88;1.27;;;;;;;29.09;32.45;100584.63;4905071;28;117727;-63